AirNav   Bose Proflight and A20 aviation headeets
 
 1095 users online  

96OR Cable Creek Ranch Airport
Ukiah, Oregon, USA

GOING TO UKIAH?


FAA INFORMATION EFFECTIVE 31 JANUARY 2019

Location

FAA Identifier: 96OR
Lat/Long: 45-06-02.0000N / 118-49-01.0000W
45-06.033333N / 118-49.016667W
45.1005556 / -118.8169444
(estimated)
Elevation: 4060 ft. / 1237 m (estimated)
Variation: 17E (2000)
From city: 5 miles E of UKIAH, OR
Time zone: UTC -8 (UTC -7 during Daylight Saving Time)
Zip code: 97868

Airport Operations

Airport use: Private use. Permission required prior to landing
Activation date: 07/2002
Control tower: no
ARTCC: SEATTLE CENTER
FSS: MC MINNVILLE FLIGHT SERVICE STATION
Attendance: UNATNDD
Wind indicator: yes
Segmented circle: no

Nearby radio navigation aids

VOR radial/distance  VOR name  Freq  Var
PDTr152/36.2PENDLETON VORTAC114.7020E

 
NDB name  Hdg/Dist  Freq  Var  ID
LA GRANDE231/38.929617ELGD .-.. --. -..

Airport Services

Runway Information

Runway 12/30

Dimensions: 4800 x 90 ft. / 1463 x 27 m
Surface: asphalt
RUNWAY 12  RUNWAY 30
Traffic pattern: leftright
Obstructions: none240 ft. trees, 5000 ft. from runway

Airport Ownership and Management from official FAA records

Ownership: Privately-owned
Owner: SPIN AND MARTY LLC
14312 STENBOCK WAY NE, #F
AURORA, OR 97002-9464
Phone 503-678-1090
Manager: MICHAEL T. WARN, MGR/PRES
14312 STENBOCK WAY NE, #F
AURORA, OR 97002-9464
Phone 503-678-1090
ALTERNATE KEN MEUSER. 503-678-1090 KEN@MANAGEMENTWEST.COM

Instrument Procedures

There are no published instrument procedures at 96OR.

Some nearby airports with instrument procedures:

KPDT - Eastern Oregon Regional Airport at Pendleton (36 nm N)
KLGD - La Grande/Union County Airport (36 nm E)
KGCD - Grant County Regional Airport/Ogilvie Field (42 nm S)
9S9 - Lexington Airport (43 nm NW)
KBKE - Baker City Municipal Airport (46 nm E)
 
Loc | Ops | Rwys | IFR | FBO | Links
Com | Nav | Svcs | Stats | Notes
Area around 96OR (Cable Creek Ranch Airport)
 
Road maps at: MapQuest Bing Google
 
Aerial photo
WARNING: Photo may not be current or correct
Aerial photo of 96OR (Cable Creek Ranch Airport)
Do you have a better or more recent aerial photo of Cable Creek Ranch Airport that you would like to share? If so, please send us your photo.

 
Sectional chart

 
Airport distance calculator
Flying to Cable Creek Ranch Airport? Find the distance to fly.

From to 96OR

Sunrise and sunset
Times for 17-Feb-2019
 Local
(UTC-8)
 Zulu
(UTC)
Morning civil twilight06:2414:24
Sunrise06:5414:54
Sunset17:2501:25
Evening civil twilight17:5501:55

Current date and time
Zulu (UTC)  17-Feb-2019 17:22:20
Local (UTC-8)  17-Feb-2019 09:22:20
 
METAR
KMEH 
30nm NE 
171656Z AUTO 00000KT 6SM BR OVC007 M03/M06 A2990 RMK AO2 SNE02B40E54 SLP152 P0000 T10331056
KLGD 
36nm E 
171656Z AUTO 28006KT 10SM CLR 00/M03 A2995 RMK AO2 UPB21E23SNB02E21 SLP280 P0000 T00001028 FZRANO
KPDT 
36nm N 
171653Z 30005KT 1/4SM R25/1200V2000FT FZFG VV002 M01/M02 A3001 RMK AO2 SNB1558E18 SLP172 P0000 T10111017
KGCD 
42nm S 
171655Z AUTO 27004KT 10SM SCT010 M02/M04 A2992 RMK AO2 T10221036
KBKE 
45nm E 
171653Z AUTO 26005KT 10SM BKN055 M02/M04 A2991 RMK AO2 SLP153 T10171044
KHRI 
48nm NW 
171704Z AUTO 27004KT 1 1/4SM -SN BR FEW010 BKN028 OVC042 01/M01 A3007 RMK AO2 P0000 T00061006
TAF
KPDT 
36nm N 
171333Z 1714/1812 28006KT 1/4SM FZFG VV002 TEMPO 1714/1717 2SM -SHSN BR OVC004 FM171700 VRB06KT 3SM BR OVC006 TEMPO 1717/1720 -SHSN FM180000 31008KT 1SM -SN BR OVC004 FM180900 30006KT 5SM BR BKN008 BKN020
NOTAMs
Click for the latest NOTAMs
NOTAMs are issued by the DoD/FAA and will open in a separate window not controlled by AirNav.

 

 
 

Would you like to see your business listed on this page?

 If your business provides an interesting product or service to pilots, flight crews, aircraft, or users of the Cable Creek Ranch Airport, you should consider listing it here.  To start the listing process, click on the button below
 
Add a business
 

Other Pages about Cable Creek Ranch Airport

Update a link
 
Copyright © AirNav, LLC. All rights reserved. Privacy Policy  Contact